sensor_id;sensor_type;location;lat;lon;timestamp;temperature;humidity
67279;DHT22;54193;53.746;10.058;2023-07-20T00:02:36;13.78;88.71
67279;DHT22;54193;53.746;10.058;2023-07-20T00:05:22;13.71;88.67
67279;DHT22;54193;53.746;10.058;2023-07-20T00:08:10;13.78;88.57
67279;DHT22;54193;53.746;10.058;2023-07-20T00:10:56;13.75;88.60
67279;DHT22;54193;53.746;10.058;2023-07-20T00:13:41;13.84;88.34
67279;DHT22;54193;53.746;10.058;2023-07-20T00:16:27;13.87;88.62
67279;DHT22;54193;53.746;10.058;2023-07-20T00:19:12;13.92;88.60
67279;DHT22;54193;53.746;10.058;2023-07-20T00:21:58;13.80;88.70
67279;DHT22;54193;53.746;10.058;2023-07-20T00:24:44;13.87;89.28
67279;DHT22;54193;53.746;10.058;2023-07-20T00:27:30;13.92;88.98
67279;DHT22;54193;53.746;10.058;2023-07-20T00:30:15;13.94;89.03
67279;DHT22;54193;53.746;10.058;2023-07-20T00:33:01;13.85;89.84
67279;DHT22;54193;53.746;10.058;2023-07-20T00:35:47;13.78;91.28
67279;DHT22;54193;53.746;10.058;2023-07-20T00:38:32;13.73;91.67
67279;DHT22;54193;53.746;10.058;2023-07-20T00:41:18;13.63;91.75
67279;DHT22;54193;53.746;10.058;2023-07-20T00:44:04;13.63;91.93
67279;DHT22;54193;53.746;10.058;2023-07-20T00:46:50;13.63;91.97
67279;DHT22;54193;53.746;10.058;2023-07-20T00:49:37;13.59;91.90
67279;DHT22;54193;53.746;10.058;2023-07-20T00:52:23;13.56;91.96
67279;DHT22;54193;53.746;10.058;2023-07-20T00:55:10;13.54;92.07
67279;DHT22;54193;53.746;10.058;2023-07-20T00:57:55;13.53;91.85
67279;DHT22;54193;53.746;10.058;2023-07-20T01:00:41;13.56;91.70
67279;DHT22;54193;53.746;10.058;2023-07-20T01:03:27;13.61;91.99
67279;DHT22;54193;53.746;10.058;2023-07-20T01:06:24;13.56;91.14
67279;DHT22;54193;53.746;10.058;2023-07-20T01:09:55;13.61;91.62
67279;DHT22;54193;53.746;10.058;2023-07-20T01:12:48;13.63;91.71
67279;DHT22;54193;53.746;10.058;2023-07-20T01:15:36;13.69;91.80
67279;DHT22;54193;53.746;10.058;2023-07-20T01:18:22;13.66;91.38
67279;DHT22;54193;53.746;10.058;2023-07-20T01:21:21;13.64;92.00
67279;DHT22;54193;53.746;10.058;2023-07-20T01:33:26;13.69;92.68
67279;DHT22;54193;53.746;10.058;2023-07-20T01:36:12;13.64;92.77
67279;DHT22;54193;53.746;10.058;2023-07-20T01:38:59;13.69;92.51
67279;DHT22;54193;53.746;10.058;2023-07-20T01:41:46;13.66;93.04
67279;DHT22;54193;53.746;10.058;2023-07-20T01:44:32;13.63;93.09
67279;DHT22;54193;53.746;10.058;2023-07-20T01:47:17;13.71;93.33
67279;DHT22;54193;53.746;10.058;2023-07-20T01:50:03;13.69;93.20
67279;DHT22;54193;53.746;10.058;2023-07-20T01:52:49;13.71;93.63
67279;DHT22;54193;53.746;10.058;2023-07-20T01:55:35;13.67;93.47
67279;DHT22;54193;53.746;10.058;2023-07-20T01:58:20;13.64;93.65
67279;DHT22;54193;53.746;10.058;2023-07-20T02:01:06;13.54;93.57
67279;DHT22;54193;53.746;10.058;2023-07-20T02:03:52;13.56;93.83
67279;DHT22;54193;53.746;10.058;2023-07-20T02:06:37;13.59;93.61
67279;DHT22;54193;53.746;10.058;2023-07-20T02:09:23;13.50;93.66
67279;DHT22;54193;53.746;10.058;2023-07-20T02:12:09;13.56;93.86
67279;DHT22;54193;53.746;10.058;2023-07-20T02:14:55;13.56;94.14
67279;DHT22;54193;53.746;10.058;2023-07-20T02:17:40;13.56;93.89
67279;DHT22;54193;53.746;10.058;2023-07-20T02:20:26;13.50;93.80
67279;DHT22;54193;53.746;10.058;2023-07-20T02:23:13;13.53;94.12
67279;DHT22;54193;53.746;10.058;2023-07-20T02:25:58;13.56;94.12
67279;DHT22;54193;53.746;10.058;2023-07-20T02:28:44;13.49;94.07
67279;DHT22;54193;53.746;10.058;2023-07-20T02:31:30;13.50;94.01
67279;DHT22;54193;53.746;10.058;2023-07-20T02:34:15;13.49;94.04
67279;DHT22;54193;53.746;10.058;2023-07-20T02:37:01;13.49;94.18
67279;DHT22;54193;53.746;10.058;2023-07-20T02:39:47;13.52;94.39
67279;DHT22;54193;53.746;10.058;2023-07-20T02:42:33;13.47;94.29
67279;DHT22;54193;53.746;10.058;2023-07-20T02:45:18;13.50;94.18
67279;DHT22;54193;53.746;10.058;2023-07-20T02:48:04;13.52;93.92
67279;DHT22;54193;53.746;10.058;2023-07-20T02:50:53;13.52;93.83
67279;DHT22;54193;53.746;10.058;2023-07-20T02:53:39;13.56;93.83
67279;DHT22;54193;53.746;10.058;2023-07-20T02:56:24;13.56;93.75
67279;DHT22;54193;53.746;10.058;2023-07-20T02:59:10;13.56;93.73
67279;DHT22;54193;53.746;10.058;2023-07-20T03:01:56;13.56;93.71
67279;DHT22;54193;53.746;10.058;2023-07-20T03:04:43;13.54;93.71
67279;DHT22;54193;53.746;10.058;2023-07-20T03:07:29;13.57;93.74
67279;DHT22;54193;53.746;10.058;2023-07-20T03:10:15;13.61;93.58
67279;DHT22;54193;53.746;10.058;2023-07-20T03:13:00;13.57;93.55
67279;DHT22;54193;53.746;10.058;2023-07-20T03:15:46;13.57;93.53
67279;DHT22;54193;53.746;10.058;2023-07-20T03:18:31;13.57;93.52
67279;DHT22;54193;53.746;10.058;2023-07-20T03:21:17;13.61;93.86
67279;DHT22;54193;53.746;10.058;2023-07-20T03:24:04;13.63;93.64
67279;DHT22;54193;53.746;10.058;2023-07-20T03:26:49;13.59;93.38
67279;DHT22;54193;53.746;10.058;2023-07-20T03:29:35;13.66;93.66
67279;DHT22;54193;53.746;10.058;2023-07-20T03:32:21;13.67;93.47
67279;DHT22;54193;53.746;10.058;2023-07-20T03:35:07;13.67;93.39
67279;DHT22;54193;53.746;10.058;2023-07-20T03:37:54;13.69;93.45
67279;DHT22;54193;53.746;10.058;2023-07-20T03:40:49;13.71;93.39
67279;DHT22;54193;53.746;10.058;2023-07-20T03:43:34;13.73;93.39
67279;DHT22;54193;53.746;10.058;2023-07-20T03:46:21;13.71;93.48
67279;DHT22;54193;53.746;10.058;2023-07-20T03:49:06;13.70;93.39
67279;DHT22;54193;53.746;10.058;2023-07-20T03:51:54;13.73;93.09
67279;DHT22;54193;53.746;10.058;2023-07-20T03:54:39;13.75;93.26
67279;DHT22;54193;53.746;10.058;2023-07-20T03:57:25;13.73;93.18
67279;DHT22;54193;53.746;10.058;2023-07-20T04:00:11;13.71;92.93
67279;DHT22;54193;53.746;10.058;2023-07-20T04:02:57;13.71;92.79
67279;DHT22;54193;53.746;10.058;2023-07-20T04:05:44;13.71;92.92
67279;DHT22;54193;53.746;10.058;2023-07-20T04:08:30;13.70;93.00
67279;DHT22;54193;53.746;10.058;2023-07-20T04:11:16;13.67;93.14
67279;DHT22;54193;53.746;10.058;2023-07-20T04:14:01;13.61;93.08
67279;DHT22;54193;53.746;10.058;2023-07-20T04:16:47;13.60;93.33
67279;DHT22;54193;53.746;10.058;2023-07-20T04:19:33;13.54;93.86
67279;DHT22;54193;53.746;10.058;2023-07-20T04:22:18;13.59;93.77
67279;DHT22;54193;53.746;10.058;2023-07-20T04:25:04;13.63;93.42
67279;DHT22;54193;53.746;10.058;2023-07-20T04:27:50;13.64;93.25
67279;DHT22;54193;53.746;10.058;2023-07-20T04:30:37;13.63;93.04
67279;DHT22;54193;53.746;10.058;2023-07-20T04:33:24;13.75;93.07
67279;DHT22;54193;53.746;10.058;2023-07-20T04:36:09;13.69;92.43
67279;DHT22;54193;53.746;10.058;2023-07-20T04:38:55;13.74;92.56
67279;DHT22;54193;53.746;10.058;2023-07-20T04:41:40;13.75;92.11
67279;DHT22;54193;53.746;10.058;2023-07-20T04:44:26;13.73;92.11
67279;DHT22;54193;53.746;10.058;2023-07-20T04:47:12;13.71;92.04
67279;DHT22;54193;53.746;10.058;2023-07-20T04:49:57;13.70;92.07
67279;DHT22;54193;53.746;10.058;2023-07-20T04:52:44;13.78;92.11
67279;DHT22;54193;53.746;10.058;2023-07-20T04:55:32;13.78;92.10
67279;DHT22;54193;53.746;10.058;2023-07-20T04:58:20;13.77;92.38
67279;DHT22;54193;53.746;10.058;2023-07-20T05:01:06;13.74;92.28
67279;DHT22;54193;53.746;10.058;2023-07-20T05:03:51;13.84;92.28
67279;DHT22;54193;53.746;10.058;2023-07-20T05:06:37;13.90;92.12
67279;DHT22;54193;53.746;10.058;2023-07-20T05:09:24;14.11;92.04
67279;DHT22;54193;53.746;10.058;2023-07-20T05:12:10;14.21;91.43
67279;DHT22;54193;53.746;10.058;2023-07-20T05:14:57;14.22;91.24
67279;DHT22;54193;53.746;10.058;2023-07-20T05:17:43;14.49;91.31
67279;DHT22;54193;53.746;10.058;2023-07-20T05:20:28;14.62;90.41
67279;DHT22;54193;53.746;10.058;2023-07-20T05:23:14;14.60;89.94
67279;DHT22;54193;53.746;10.058;2023-07-20T05:26:00;14.59;89.88
67279;DHT22;54193;53.746;10.058;2023-07-20T05:28:45;14.59;89.60
67279;DHT22;54193;53.746;10.058;2023-07-20T05:31:31;14.63;89.86
67279;DHT22;54193;53.746;10.058;2023-07-20T05:34:17;14.69;89.36
67279;DHT22;54193;53.746;10.058;2023-07-20T05:37:02;14.70;89.49
67279;DHT22;54193;53.746;10.058;2023-07-20T05:39:48;14.74;88.86
67279;DHT22;54193;53.746;10.058;2023-07-20T05:42:34;14.97;88.03
67279;DHT22;54193;53.746;10.058;2023-07-20T05:45:19;15.31;87.55
67279;DHT22;54193;53.746;10.058;2023-07-20T05:48:05;15.55;86.82
67279;DHT22;54193;53.746;10.058;2023-07-20T05:50:51;15.55;85.89
67279;DHT22;54193;53.746;10.058;2023-07-20T05:53:37;15.36;85.78
67279;DHT22;54193;53.746;10.058;2023-07-20T05:56:23;15.32;86.42
67279;DHT22;54193;53.746;10.058;2023-07-20T05:59:09;15.21;86.60
67279;DHT22;54193;53.746;10.058;2023-07-20T06:01:54;15.11;86.59
67279;DHT22;54193;53.746;10.058;2023-07-20T06:04:40;15.17;86.83
67279;DHT22;54193;53.746;10.058;2023-07-20T06:07:26;15.22;86.31
67279;DHT22;54193;53.746;10.058;2023-07-20T06:10:11;15.21;85.70
67279;DHT22;54193;53.746;10.058;2023-07-20T06:12:57;15.29;84.94
67279;DHT22;54193;53.746;10.058;2023-07-20T06:15:43;15.56;84.74
67279;DHT22;54193;53.746;10.058;2023-07-20T06:18:29;15.96;84.67
67279;DHT22;54193;53.746;10.058;2023-07-20T06:21:15;16.25;82.80
67279;DHT22;54193;53.746;10.058;2023-07-20T06:24:01;16.35;80.23
67279;DHT22;54193;53.746;10.058;2023-07-20T06:26:48;16.73;80.68
67279;DHT22;54193;53.746;10.058;2023-07-20T06:29:34;16.99;79.97
67279;DHT22;54193;53.746;10.058;2023-07-20T06:32:20;17.31;79.57
67279;DHT22;54193;53.746;10.058;2023-07-20T06:35:10;17.46;76.14
67279;DHT22;54193;53.746;10.058;2023-07-20T06:37:57;17.55;76.51
67279;DHT22;54193;53.746;10.058;2023-07-20T06:40:46;17.96;74.76
67279;DHT22;54193;53.746;10.058;2023-07-20T06:43:32;17.56;76.29
67279;DHT22;54193;53.746;10.058;2023-07-20T06:46:17;17.44;75.38
67279;DHT22;54193;53.746;10.058;2023-07-20T06:49:06;17.39;75.54
67279;DHT22;54193;53.746;10.058;2023-07-20T06:51:52;17.53;76.13
67279;DHT22;54193;53.746;10.058;2023-07-20T06:54:38;17.36;74.03
67279;DHT22;54193;53.746;10.058;2023-07-20T06:57:23;17.89;73.21
67279;DHT22;54193;53.746;10.058;2023-07-20T07:00:09;18.89;69.82
67279;DHT22;54193;53.746;10.058;2023-07-20T07:02:56;18.37;71.65
67279;DHT22;54193;53.746;10.058;2023-07-20T07:05:43;18.69;69.77
67279;DHT22;54193;53.746;10.058;2023-07-20T07:08:30;17.55;72.62
67279;DHT22;54193;53.746;10.058;2023-07-20T07:11:16;17.24;73.11
67279;DHT22;54193;53.746;10.058;2023-07-20T07:14:02;17.44;74.33
67279;DHT22;54193;53.746;10.058;2023-07-20T07:16:48;17.59;72.38
67279;DHT22;54193;53.746;10.058;2023-07-20T07:19:33;17.23;74.12
67279;DHT22;54193;53.746;10.058;2023-07-20T07:22:19;17.08;73.54
67279;DHT22;54193;53.746;10.058;2023-07-20T07:25:05;16.73;74.80
67279;DHT22;54193;53.746;10.058;2023-07-20T07:27:52;16.83;72.83
67279;DHT22;54193;53.746;10.058;2023-07-20T07:30:38;17.45;71.51
67279;DHT22;54193;53.746;10.058;2023-07-20T07:33:24;17.69;72.22
67279;DHT22;54193;53.746;10.058;2023-07-20T07:36:09;18.66;69.83
67279;DHT22;54193;53.746;10.058;2023-07-20T07:38:55;18.49;70.23
67279;DHT22;54193;53.746;10.058;2023-07-20T07:41:40;18.68;68.16
67279;DHT22;54193;53.746;10.058;2023-07-20T07:44:26;18.18;68.49
67279;DHT22;54193;53.746;10.058;2023-07-20T07:47:12;18.07;69.60
67279;DHT22;54193;53.746;10.058;2023-07-20T07:49:58;18.26;69.18
67279;DHT22;54193;53.746;10.058;2023-07-20T07:52:43;18.38;70.12
67279;DHT22;54193;53.746;10.058;2023-07-20T07:55:29;18.34;70.69
67279;DHT22;54193;53.746;10.058;2023-07-20T07:58:15;18.81;70.20
67279;DHT22;54193;53.746;10.058;2023-07-20T08:01:01;18.00;71.63
67279;DHT22;54193;53.746;10.058;2023-07-20T08:03:46;18.44;71.50
67279;DHT22;54193;53.746;10.058;2023-07-20T08:06:33;19.50;68.32
67279;DHT22;54193;53.746;10.058;2023-07-20T08:09:18;19.26;66.42
67279;DHT22;54193;53.746;10.058;2023-07-20T08:12:04;20.27;65.23
67279;DHT22;54193;53.746;10.058;2023-07-20T08:14:51;19.87;67.08
67279;DHT22;54193;53.746;10.058;2023-07-20T08:17:37;18.69;69.70
67279;DHT22;54193;53.746;10.058;2023-07-20T08:20:22;17.75;75.54
67279;DHT22;54193;53.746;10.058;2023-07-20T08:23:12;16.76;79.46
67279;DHT22;54193;53.746;10.058;2023-07-20T08:25:58;16.42;81.46
67279;DHT22;54193;53.746;10.058;2023-07-20T08:28:44;16.55;80.55
67279;DHT22;54193;53.746;10.058;2023-07-20T08:31:31;16.52;80.11
67279;DHT22;54193;53.746;10.058;2023-07-20T08:34:16;16.86;79.18
67279;DHT22;54193;53.746;10.058;2023-07-20T08:37:03;17.42;79.32
67279;DHT22;54193;53.746;10.058;2023-07-20T08:39:48;18.55;71.43
67279;DHT22;54193;53.746;10.058;2023-07-20T08:42:34;18.82;73.64
67279;DHT22;54193;53.746;10.058;2023-07-20T08:45:22;18.21;74.66
67279;DHT22;54193;53.746;10.058;2023-07-20T08:48:08;17.58;76.38
67279;DHT22;54193;53.746;10.058;2023-07-20T08:50:55;18.18;72.76
67279;DHT22;54193;53.746;10.058;2023-07-20T08:53:42;18.44;75.67
67279;DHT22;54193;53.746;10.058;2023-07-20T08:56:30;19.21;70.48
67279;DHT22;54193;53.746;10.058;2023-07-20T08:59:17;18.61;69.66
67279;DHT22;54193;53.746;10.058;2023-07-20T09:02:06;18.89;64.96
67279;DHT22;54193;53.746;10.058;2023-07-20T09:04:53;20.16;63.49
67279;DHT22;54193;53.746;10.058;2023-07-20T09:07:39;19.17;62.02
67279;DHT22;54193;53.746;10.058;2023-07-20T09:10:25;17.38;70.86
67279;DHT22;54193;53.746;10.058;2023-07-20T09:13:14;16.53;81.76
67279;DHT22;54193;53.746;10.058;2023-07-20T09:16:01;16.03;81.47
67279;DHT22;54193;53.746;10.058;2023-07-20T09:18:46;16.36;81.23
67279;DHT22;54193;53.746;10.058;2023-07-20T09:21:32;17.48;79.87
67279;DHT22;54193;53.746;10.058;2023-07-20T09:24:19;18.21;78.61
67279;DHT22;54193;53.746;10.058;2023-07-20T09:27:06;18.01;74.29
67279;DHT22;54193;53.746;10.058;2023-07-20T09:29:51;18.00;73.91
67279;DHT22;54193;53.746;10.058;2023-07-20T09:32:39;17.59;74.56
67279;DHT22;54193;53.746;10.058;2023-07-20T09:35:26;18.03;76.62
67279;DHT22;54193;53.746;10.058;2023-07-20T09:38:11;18.48;74.60
67279;DHT22;54193;53.746;10.058;2023-07-20T09:40:57;19.31;74.27
67279;DHT22;54193;53.746;10.058;2023-07-20T09:43:43;18.86;69.90
67279;DHT22;54193;53.746;10.058;2023-07-20T09:46:41;19.76;65.83
67279;DHT22;54193;53.746;10.058;2023-07-20T09:49:27;19.62;68.53
67279;DHT22;54193;53.746;10.058;2023-07-20T09:52:13;20.44;67.54
67279;DHT22;54193;53.746;10.058;2023-07-20T09:54:59;20.98;62.94
67279;DHT22;54193;53.746;10.058;2023-07-20T09:57:46;19.54;64.99
67279;DHT22;54193;53.746;10.058;2023-07-20T10:00:36;20.16;64.78
67279;DHT22;54193;53.746;10.058;2023-07-20T10:03:24;18.81;66.68
67279;DHT22;54193;53.746;10.058;2023-07-20T10:06:15;18.20;70.11
67279;DHT22;54193;53.746;10.058;2023-07-20T10:09:03;16.15;79.87
67279;DHT22;54193;53.746;10.058;2023-07-20T10:11:50;15.73;83.53
67279;DHT22;54193;53.746;10.058;2023-07-20T10:14:41;15.59;86.75
67279;DHT22;54193;53.746;10.058;2023-07-20T10:17:29;15.53;86.76
67279;DHT22;54193;53.746;10.058;2023-07-20T10:20:18;15.36;86.24
67279;DHT22;54193;53.746;10.058;2023-07-20T10:23:06;15.67;88.03
67279;DHT22;54193;53.746;10.058;2023-07-20T10:25:53;15.66;87.37
67279;DHT22;54193;53.746;10.058;2023-07-20T10:28:39;16.01;85.87
67279;DHT22;54193;53.746;10.058;2023-07-20T10:31:27;16.48;85.99
67279;DHT22;54193;53.746;10.058;2023-07-20T10:34:14;16.80;84.77
67279;DHT22;54193;53.746;10.058;2023-07-20T10:37:00;17.41;84.75
67279;DHT22;54193;53.746;10.058;2023-07-20T10:39:45;17.56;82.00
67279;DHT22;54193;53.746;10.058;2023-07-20T10:42:33;18.01;81.47
67279;DHT22;54193;53.746;10.058;2023-07-20T10:45:19;17.76;78.60
67279;DHT22;54193;53.746;10.058;2023-07-20T10:48:05;18.20;78.75
67279;DHT22;54193;53.746;10.058;2023-07-20T10:51:13;17.28;79.69
67279;DHT22;54193;53.746;10.058;2023-07-20T10:54:02;16.68;82.00
67279;DHT22;54193;53.746;10.058;2023-07-20T10:56:48;16.96;83.18
67279;DHT22;54193;53.746;10.058;2023-07-20T11:02:19;16.77;81.28
67279;DHT22;54193;53.746;10.058;2023-07-20T11:05:07;16.83;81.10
67279;DHT22;54193;53.746;10.058;2023-07-20T11:07:56;16.99;80.50
67279;DHT22;54193;53.746;10.058;2023-07-20T11:10:41;16.97;79.99
67279;DHT22;54193;53.746;10.058;2023-07-20T11:13:27;16.90;79.23
67279;DHT22;54193;53.746;10.058;2023-07-20T11:16:16;17.68;76.54
67279;DHT22;54193;53.746;10.058;2023-07-20T11:19:06;18.44;70.91
67279;DHT22;54193;53.746;10.058;2023-07-20T11:21:56;18.52;72.34
67279;DHT22;54193;53.746;10.058;2023-07-20T11:24:42;16.52;81.05
67279;DHT22;54193;53.746;10.058;2023-07-20T11:27:28;15.29;82.63
67279;DHT22;54193;53.746;10.058;2023-07-20T11:30:16;15.07;83.00
67279;DHT22;54193;53.746;10.058;2023-07-20T11:33:02;15.18;83.56
67279;DHT22;54193;53.746;10.058;2023-07-20T11:35:49;15.46;84.96
67279;DHT22;54193;53.746;10.058;2023-07-20T11:38:36;15.48;84.71
67279;DHT22;54193;53.746;10.058;2023-07-20T11:41:22;15.73;84.58
67279;DHT22;54193;53.746;10.058;2023-07-20T11:44:09;16.08;85.66
67279;DHT22;54193;53.746;10.058;2023-07-20T11:47:10;16.07;85.45
67279;DHT22;54193;53.746;10.058;2023-07-20T11:50:03;16.31;85.53
67279;DHT22;54193;53.746;10.058;2023-07-20T11:52:49;16.24;85.07
67279;DHT22;54193;53.746;10.058;2023-07-20T11:55:34;16.17;84.49
67279;DHT22;54193;53.746;10.058;2023-07-20T11:58:21;16.56;83.19
67279;DHT22;54193;53.746;10.058;2023-07-20T12:01:06;16.90;83.20
67279;DHT22;54193;53.746;10.058;2023-07-20T12:03:52;17.13;83.41
67279;DHT22;54193;53.746;10.058;2023-07-20T12:06:38;16.65;80.62
67279;DHT22;54193;53.746;10.058;2023-07-20T12:09:23;16.72;80.63
67279;DHT22;54193;53.746;10.058;2023-07-20T12:12:10;17.18;82.35
67279;DHT22;54193;53.746;10.058;2023-07-20T12:15:25;17.06;80.59
67279;DHT22;54193;53.746;10.058;2023-07-20T12:18:15;17.38;80.58
67279;DHT22;54193;53.746;10.058;2023-07-20T12:21:01;17.20;79.12
67279;DHT22;54193;53.746;10.058;2023-07-20T12:23:47;17.44;80.87
67279;DHT22;54193;53.746;10.058;2023-07-20T12:26:33;17.38;79.93
67279;DHT22;54193;53.746;10.058;2023-07-20T12:29:19;17.53;78.23
67279;DHT22;54193;53.746;10.058;2023-07-20T12:32:05;18.07;78.92
67279;DHT22;54193;53.746;10.058;2023-07-20T12:34:50;17.87;76.96
67279;DHT22;54193;53.746;10.058;2023-07-20T12:37:36;18.14;74.39
67279;DHT22;54193;53.746;10.058;2023-07-20T12:40:22;18.35;71.53
67279;DHT22;54193;53.746;10.058;2023-07-20T12:43:08;18.20;71.75
67279;DHT22;54193;53.746;10.058;2023-07-20T12:45:54;17.68;72.14
67279;DHT22;54193;53.746;10.058;2023-07-20T12:48:40;17.56;72.47
67279;DHT22;54193;53.746;10.058;2023-07-20T12:51:27;17.59;73.77
67279;DHT22;54193;53.746;10.058;2023-07-20T12:54:13;18.20;72.96
67279;DHT22;54193;53.746;10.058;2023-07-20T12:56:58;18.62;69.86
67279;DHT22;54193;53.746;10.058;2023-07-20T12:59:44;18.56;67.91
67279;DHT22;54193;53.746;10.058;2023-07-20T13:02:31;18.54;67.35
67279;DHT22;54193;53.746;10.058;2023-07-20T13:05:17;19.47;68.65
67279;DHT22;54193;53.746;10.058;2023-07-20T13:08:03;19.85;66.68
67279;DHT22;54193;53.746;10.058;2023-07-20T13:10:49;19.35;70.58
67279;DHT22;54193;53.746;10.058;2023-07-20T13:13:34;17.71;74.65
67279;DHT22;54193;53.746;10.058;2023-07-20T13:16:20;17.38;77.09
67279;DHT22;54193;53.746;10.058;2023-07-20T13:19:06;17.48;77.98
67279;DHT22;54193;53.746;10.058;2023-07-20T13:21:51;17.63;78.84
67279;DHT22;54193;53.746;10.058;2023-07-20T13:24:37;17.83;77.94
67279;DHT22;54193;53.746;10.058;2023-07-20T13:27:23;17.78;76.66
67279;DHT22;54193;53.746;10.058;2023-07-20T13:30:08;17.51;75.46
67279;DHT22;54193;53.746;10.058;2023-07-20T13:32:58;17.87;76.68
67279;DHT22;54193;53.746;10.058;2023-07-20T13:35:44;17.65;75.09
67279;DHT22;54193;53.746;10.058;2023-07-20T13:38:30;17.75;75.57
67279;DHT22;54193;53.746;10.058;2023-07-20T13:41:15;18.06;75.52
67279;DHT22;54193;53.746;10.058;2023-07-20T13:44:04;17.72;73.77
67279;DHT22;54193;53.746;10.058;2023-07-20T13:46:50;17.76;73.82
67279;DHT22;54193;53.746;10.058;2023-07-20T13:49:37;18.04;73.20
67279;DHT22;54193;53.746;10.058;2023-07-20T13:52:22;18.41;70.24
67279;DHT22;54193;53.746;10.058;2023-07-20T13:55:08;19.19;70.08
67279;DHT22;54193;53.746;10.058;2023-07-20T13:57:54;19.75;68.04
67279;DHT22;54193;53.746;10.058;2023-07-20T14:00:40;19.86;59.81
67279;DHT22;54193;53.746;10.058;2023-07-20T14:03:25;19.65;61.42
67279;DHT22;54193;53.746;10.058;2023-07-20T14:06:11;19.43;58.86
67279;DHT22;54193;53.746;10.058;2023-07-20T14:08:59;19.20;59.56
67279;DHT22;54193;53.746;10.058;2023-07-20T14:11:44;19.30;60.90
67279;DHT22;54193;53.746;10.058;2023-07-20T14:14:30;18.93;59.45
67279;DHT22;54193;53.746;10.058;2023-07-20T14:17:16;19.13;61.04
67279;DHT22;54193;53.746;10.058;2023-07-20T14:20:02;19.17;60.23
67279;DHT22;54193;53.746;10.058;2023-07-20T14:22:51;18.99;60.86
67279;DHT22;54193;53.746;10.058;2023-07-20T14:25:36;19.11;60.14
67279;DHT22;54193;53.746;10.058;2023-07-20T14:28:22;19.28;61.82
67279;DHT22;54193;53.746;10.058;2023-07-20T14:31:08;19.43;61.41
67279;DHT22;54193;53.746;10.058;2023-07-20T14:33:53;18.89;62.19
67279;DHT22;54193;53.746;10.058;2023-07-20T14:36:39;19.17;62.47
67279;DHT22;54193;53.746;10.058;2023-07-20T14:39:25;19.79;63.33
67279;DHT22;54193;53.746;10.058;2023-07-20T14:42:10;20.13;60.18
67279;DHT22;54193;53.746;10.058;2023-07-20T14:44:56;19.62;61.18
67279;DHT22;54193;53.746;10.058;2023-07-20T14:47:41;19.85;62.61
67279;DHT22;54193;53.746;10.058;2023-07-20T14:50:28;19.23;62.00
67279;DHT22;54193;53.746;10.058;2023-07-20T14:53:14;19.11;64.40
67279;DHT22;54193;53.746;10.058;2023-07-20T14:56:00;19.31;65.08
67279;DHT22;54193;53.746;10.058;2023-07-20T14:58:46;19.40;63.91
67279;DHT22;54193;53.746;10.058;2023-07-20T15:01:32;19.30;64.87
67279;DHT22;54193;53.746;10.058;2023-07-20T15:04:18;19.19;61.57
67279;DHT22;54193;53.746;10.058;2023-07-20T15:07:04;19.06;60.70
67279;DHT22;54193;53.746;10.058;2023-07-20T15:09:50;19.04;62.13
67279;DHT22;54193;53.746;10.058;2023-07-20T15:12:35;18.77;62.03
67279;DHT22;54193;53.746;10.058;2023-07-20T15:15:21;18.68;63.38
67279;DHT22;54193;53.746;10.058;2023-07-20T15:18:07;18.83;64.54
67279;DHT22;54193;53.746;10.058;2023-07-20T15:20:52;18.85;65.11
67279;DHT22;54193;53.746;10.058;2023-07-20T15:23:39;18.73;64.78
67279;DHT22;54193;53.746;10.058;2023-07-20T15:26:24;18.71;65.88
67279;DHT22;54193;53.746;10.058;2023-07-20T15:29:10;18.71;65.67
67279;DHT22;54193;53.746;10.058;2023-07-20T15:31:56;18.85;66.39
67279;DHT22;54193;53.746;10.058;2023-07-20T15:34:43;18.76;64.36
67279;DHT22;54193;53.746;10.058;2023-07-20T15:37:29;18.85;63.80
67279;DHT22;54193;53.746;10.058;2023-07-20T15:40:15;18.89;62.38
67279;DHT22;54193;53.746;10.058;2023-07-20T15:43:01;18.88;61.41
67279;DHT22;54193;53.746;10.058;2023-07-20T15:45:47;18.75;60.26
67279;DHT22;54193;53.746;10.058;2023-07-20T15:48:34;18.76;60.58
67279;DHT22;54193;53.746;10.058;2023-07-20T15:51:20;18.45;62.78
67279;DHT22;54193;53.746;10.058;2023-07-20T15:54:06;18.75;62.74
67279;DHT22;54193;53.746;10.058;2023-07-20T15:56:53;18.77;62.95
67279;DHT22;54193;53.746;10.058;2023-07-20T15:59:39;18.92;63.98
67279;DHT22;54193;53.746;10.058;2023-07-20T16:02:25;19.31;62.25
67279;DHT22;54193;53.746;10.058;2023-07-20T16:05:10;19.47;61.20
67279;DHT22;54193;53.746;10.058;2023-07-20T16:07:56;19.06;62.07
67279;DHT22;54193;53.746;10.058;2023-07-20T16:10:42;18.49;64.12
67279;DHT22;54193;53.746;10.058;2023-07-20T16:13:27;18.18;64.95
67279;DHT22;54193;53.746;10.058;2023-07-20T16:16:13;18.44;63.60
67279;DHT22;54193;53.746;10.058;2023-07-20T16:18:58;18.51;62.66
67279;DHT22;54193;53.746;10.058;2023-07-20T16:21:44;18.43;62.01
67279;DHT22;54193;53.746;10.058;2023-07-20T16:24:30;18.41;62.43
67279;DHT22;54193;53.746;10.058;2023-07-20T16:27:16;18.43;64.10
67279;DHT22;54193;53.746;10.058;2023-07-20T16:30:03;18.38;63.96
67279;DHT22;54193;53.746;10.058;2023-07-20T16:32:49;18.23;64.25
67279;DHT22;54193;53.746;10.058;2023-07-20T16:35:41;18.24;64.14
67279;DHT22;54193;53.746;10.058;2023-07-20T16:38:27;18.40;63.53
67279;DHT22;54193;53.746;10.058;2023-07-20T16:41:12;18.41;64.42
67279;DHT22;54193;53.746;10.058;2023-07-20T16:43:58;18.37;63.85
67279;DHT22;54193;53.746;10.058;2023-07-20T16:46:44;18.44;63.84
67279;DHT22;54193;53.746;10.058;2023-07-20T16:49:30;18.43;63.73
67279;DHT22;54193;53.746;10.058;2023-07-20T16:52:16;18.37;63.76
67279;DHT22;54193;53.746;10.058;2023-07-20T16:55:02;18.23;64.16
67279;DHT22;54193;53.746;10.058;2023-07-20T16:57:48;18.33;63.00
67279;DHT22;54193;53.746;10.058;2023-07-20T17:00:33;18.34;65.02
67279;DHT22;54193;53.746;10.058;2023-07-20T17:03:19;18.18;63.89
67279;DHT22;54193;53.746;10.058;2023-07-20T17:06:04;18.20;64.44
67279;DHT22;54193;53.746;10.058;2023-07-20T17:08:52;18.31;65.60
67279;DHT22;54193;53.746;10.058;2023-07-20T17:11:38;18.14;65.94
67279;DHT22;54193;53.746;10.058;2023-07-20T17:14:24;18.14;65.02
67279;DHT22;54193;53.746;10.058;2023-07-20T17:17:10;18.07;66.00
67279;DHT22;54193;53.746;10.058;2023-07-20T17:19:55;17.90;66.61
67279;DHT22;54193;53.746;10.058;2023-07-20T17:22:41;17.89;67.64
67279;DHT22;54193;53.746;10.058;2023-07-20T17:25:27;17.89;68.13
67279;DHT22;54193;53.746;10.058;2023-07-20T17:28:14;17.76;68.56